createdAt,value
2016-12-12T00:00:39.680Z,99.99
2016-12-12T00:01:40.311Z,99.99
2016-12-12T00:02:40.922Z,99.99
2016-12-12T00:03:41.555Z,99.99
2016-12-12T00:04:42.170Z,99.99
2016-12-12T00:05:42.797Z,99.99
2016-12-12T00:06:43.416Z,99.99
2016-12-12T00:07:44.045Z,99.99
2016-12-12T00:08:44.659Z,99.99
2016-12-12T00:09:45.277Z,99.99
2016-12-12T00:10:45.940Z,99.99
2016-12-12T00:11:46.580Z,99.99
2016-12-12T00:12:47.205Z,99.99
2016-12-12T00:13:47.858Z,99.99
2016-12-12T00:14:48.482Z,99.99
2016-12-12T00:15:49.114Z,99.99
2016-12-12T00:16:49.767Z,99.99
2016-12-12T00:17:50.396Z,99.99
2016-12-12T00:18:51.023Z,99.99
2016-12-12T00:19:51.637Z,99.99
2016-12-12T00:20:52.287Z,99.99
2016-12-12T00:21:52.938Z,99.99
2016-12-12T00:22:53.570Z,99.99
2016-12-12T00:23:54.224Z,99.99
2016-12-12T00:24:54.862Z,99.99
2016-12-12T00:25:55.514Z,99.99
2016-12-12T00:26:56.135Z,99.99
2016-12-12T00:27:56.754Z,99.99
2016-12-12T00:28:57.392Z,99.99
2016-12-12T00:29:58.007Z,99.99
2016-12-12T00:30:58.671Z,99.99
2016-12-12T00:31:59.348Z,99.99
2016-12-12T00:32:59.982Z,99.99
2016-12-12T00:34:00.632Z,99.99
2016-12-12T00:35:01.280Z,99.99
2016-12-12T00:36:01.934Z,99.99
2016-12-12T00:37:02.559Z,99.99
2016-12-12T00:38:03.217Z,99.99
2016-12-12T00:39:03.841Z,99.99
2016-12-12T00:40:04.476Z,99.99
2016-12-12T00:41:05.145Z,99.99
2016-12-12T00:42:05.764Z,99.99
2016-12-12T00:43:06.387Z,99.99
2016-12-12T00:44:07.017Z,99.99
2016-12-12T00:45:07.626Z,99.99
2016-12-12T00:46:08.253Z,99.99
2016-12-12T00:47:08.925Z,99.99
2016-12-12T00:48:09.541Z,99.99
2016-12-12T00:49:10.170Z,99.99
2016-12-12T00:50:10.822Z,99.99
2016-12-12T00:51:11.484Z,99.99
2016-12-12T00:52:12.139Z,99.99
2016-12-12T00:53:12.759Z,99.99
2016-12-12T00:54:13.379Z,99.99
2016-12-12T00:55:14.021Z,99.99
2016-12-12T00:56:14.657Z,99.99
2016-12-12T00:57:15.289Z,99.99
2016-12-12T00:58:15.928Z,99.99
2016-12-12T00:59:16.562Z,99.99
2016-12-12T01:00:17.212Z,99.99
2016-12-12T01:01:17.824Z,99.99
2016-12-12T01:02:18.444Z,99.99
2016-12-12T01:03:19.122Z,99.99
2016-12-12T01:04:19.743Z,99.99
2016-12-12T01:05:20.378Z,99.99
2016-12-12T01:06:21.030Z,99.99
2016-12-12T01:07:21.674Z,99.99
2016-12-12T01:08:22.332Z,99.99
2016-12-12T01:09:22.983Z,99.99
2016-12-12T01:10:23.613Z,99.99
2016-12-12T01:11:24.257Z,99.99
2016-12-12T01:12:24.874Z,99.99
2016-12-12T01:13:25.533Z,99.99
2016-12-12T01:14:26.155Z,99.99
2016-12-12T01:15:26.793Z,99.99
2016-12-12T01:16:27.456Z,99.99
2016-12-12T01:17:28.086Z,99.99
2016-12-12T01:18:28.736Z,99.99
2016-12-12T01:19:29.374Z,99.99
2016-12-12T01:20:30.003Z,99.99
2016-12-12T01:21:30.668Z,99.99
2016-12-12T01:22:31.319Z,99.99
2016-12-12T01:23:31.949Z,99.99
2016-12-12T01:24:32.579Z,99.99
2016-12-12T01:25:33.192Z,99.99
2016-12-12T01:26:33.825Z,99.99
2016-12-12T01:27:34.474Z,99.99
2016-12-12T01:28:35.133Z,99.99
2016-12-12T01:29:35.778Z,99.99
2016-12-12T01:30:36.418Z,99.99
2016-12-12T01:31:37.068Z,99.99
2016-12-12T01:32:37.714Z,99.99
2016-12-12T01:33:38.357Z,99.99
2016-12-12T01:34:38.989Z,99.99
2016-12-12T01:35:39.616Z,99.99
2016-12-12T01:36:40.277Z,99.99
2016-12-12T01:37:40.909Z,99.99
2016-12-12T01:38:41.550Z,99.99
2016-12-12T01:39:42.184Z,99.99
2016-12-12T01:40:42.855Z,99.99
2016-12-12T01:41:43.490Z,99.99
2016-12-12T01:42:44.147Z,99.99
2016-12-12T01:43:44.784Z,99.99
2016-12-12T01:44:45.400Z,99.99
2016-12-12T01:45:46.057Z,99.99
2016-12-12T01:46:46.688Z,99.99
2016-12-12T01:47:47.340Z,99.99
2016-12-12T01:48:47.974Z,99.99
2016-12-12T01:49:48.621Z,99.99
2016-12-12T01:50:49.253Z,99.99
2016-12-12T01:51:49.887Z,99.99
2016-12-12T01:52:50.526Z,99.99
2016-12-12T01:53:51.162Z,99.99
2016-12-12T01:54:51.799Z,99.99
2016-12-12T01:55:52.442Z,99.99
2016-12-12T01:56:53.081Z,99.99
2016-12-12T01:57:53.743Z,99.99
2016-12-12T01:58:54.383Z,99.99
2016-12-12T01:59:55.031Z,99.99
2016-12-12T02:00:55.686Z,99.99
2016-12-12T02:01:56.329Z,99.99
2016-12-12T02:02:56.986Z,99.99
2016-12-12T02:03:57.614Z,99.99
2016-12-12T02:04:58.269Z,99.99
2016-12-12T02:05:58.909Z,99.99
2016-12-12T02:06:59.549Z,99.99
2016-12-12T02:08:00.188Z,99.99
2016-12-12T02:09:00.818Z,99.99
2016-12-12T02:10:01.457Z,99.99
2016-12-12T02:11:02.111Z,99.99
2016-12-12T02:12:02.739Z,99.99
2016-12-12T02:13:03.382Z,99.99
2016-12-12T02:14:04.016Z,99.99
2016-12-12T02:15:04.637Z,99.99
2016-12-12T02:16:05.268Z,99.99
2016-12-12T02:17:05.930Z,99.99
2016-12-12T02:18:06.560Z,99.99
2016-12-12T02:19:07.181Z,99.99
2016-12-12T02:20:07.814Z,99.99
2016-12-12T02:21:08.453Z,99.99
2016-12-12T02:22:09.079Z,99.99
2016-12-12T02:23:09.725Z,99.99
2016-12-12T02:24:10.345Z,99.99
2016-12-12T02:25:10.987Z,99.99
2016-12-12T02:26:11.646Z,99.99
2016-12-12T02:27:12.268Z,99.99
2016-12-12T02:28:12.927Z,99.99
2016-12-12T02:29:13.601Z,99.99
2016-12-12T02:30:14.232Z,99.99
2016-12-12T02:31:14.876Z,99.99
2016-12-12T02:32:15.521Z,99.99
2016-12-12T02:33:16.148Z,99.99
2016-12-12T02:34:16.812Z,99.99
2016-12-12T02:35:17.453Z,99.99
2016-12-12T02:36:18.092Z,99.99
2016-12-12T02:37:18.732Z,99.99
2016-12-12T02:38:19.367Z,99.99
2016-12-12T02:39:20.012Z,99.99
2016-12-12T02:40:20.656Z,99.99
2016-12-12T02:41:21.279Z,99.99
2016-12-12T02:42:21.895Z,99.99
2016-12-12T02:43:22.519Z,99.99
2016-12-12T02:44:23.174Z,99.99
2016-12-12T02:45:23.803Z,99.99
2016-12-12T02:46:24.408Z,99.99
2016-12-12T02:47:25.030Z,99.99
2016-12-12T02:48:25.662Z,99.99
2016-12-12T02:49:26.332Z,99.99
2016-12-12T02:50:26.962Z,99.99
2016-12-12T02:51:27.583Z,99.99
2016-12-12T02:52:28.212Z,99.99
2016-12-12T02:53:28.836Z,99.99
2016-12-12T02:54:29.453Z,99.99
2016-12-12T02:55:30.085Z,99.99
2016-12-12T02:56:30.723Z,99.99
2016-12-12T02:57:38.257Z,99.99
2016-12-12T02:58:38.894Z,99.99
2016-12-12T02:59:39.518Z,99.99
2016-12-12T03:00:40.136Z,99.99
2016-12-12T03:01:40.791Z,99.99
2016-12-12T03:02:41.414Z,99.99
2016-12-12T03:03:42.047Z,99.99
2016-12-12T03:04:42.672Z,99.99
2016-12-12T03:05:43.334Z,99.99
2016-12-12T03:06:43.970Z,99.99
2016-12-12T03:07:44.600Z,99.99
2016-12-12T03:08:45.214Z,99.99
2016-12-12T03:09:45.838Z,99.99
2016-12-12T03:10:46.463Z,99.99
2016-12-12T03:11:47.112Z,99.99
2016-12-12T03:12:47.761Z,99.99
2016-12-12T03:13:48.393Z,99.99
2016-12-12T03:14:49.035Z,99.99
2016-12-12T03:15:49.656Z,99.99
2016-12-12T03:16:50.287Z,99.99
2016-12-12T03:17:50.913Z,99.99
2016-12-12T03:18:51.604Z,99.99
2016-12-12T03:19:52.224Z,99.99
2016-12-12T03:20:52.854Z,99.99
2016-12-12T03:21:53.495Z,99.99
2016-12-12T03:22:54.108Z,99.99
2016-12-12T03:23:54.756Z,99.99
2016-12-12T03:24:55.387Z,99.99
2016-12-12T03:25:56.031Z,99.99
2016-12-12T03:26:56.650Z,99.99
2016-12-12T03:27:57.284Z,99.99
2016-12-12T03:28:57.916Z,99.99
2016-12-12T03:29:58.541Z,99.99
2016-12-12T03:30:59.166Z,99.99
2016-12-12T03:31:59.817Z,99.99
2016-12-12T03:33:00.451Z,99.99
2016-12-12T03:34:01.080Z,99.99
2016-12-12T03:35:01.755Z,99.99
2016-12-12T03:36:02.398Z,99.99
2016-12-12T03:37:03.067Z,99.99
2016-12-12T03:38:03.707Z,99.99
2016-12-12T03:39:04.346Z,99.99
2016-12-12T03:40:04.966Z,99.99
2016-12-12T03:41:05.594Z,99.99
2016-12-12T03:42:06.233Z,99.99
2016-12-12T03:43:06.878Z,99.99
2016-12-12T03:44:07.506Z,99.99
2016-12-12T03:45:08.151Z,99.99
2016-12-12T03:46:08.784Z,99.99
2016-12-12T03:47:09.410Z,99.99
2016-12-12T03:48:10.042Z,99.99
2016-12-12T03:49:10.710Z,99.99
2016-12-12T03:50:11.326Z,99.99
2016-12-12T03:51:11.954Z,99.99
2016-12-12T03:52:12.593Z,99.99
2016-12-12T03:53:13.234Z,99.99
2016-12-12T03:54:13.872Z,99.99
2016-12-12T03:55:14.529Z,99.99
2016-12-12T03:56:15.156Z,99.99
2016-12-12T03:57:15.805Z,99.99
2016-12-12T03:58:16.453Z,99.99
2016-12-12T03:59:17.099Z,99.99
2016-12-12T04:00:17.745Z,99.99
2016-12-12T04:01:18.387Z,99.99
2016-12-12T04:02:19.004Z,99.99
2016-12-12T04:03:19.644Z,99.99
2016-12-12T04:04:20.273Z,99.99
2016-12-12T04:05:20.916Z,99.99
2016-12-12T04:06:21.566Z,99.99
2016-12-12T04:07:22.210Z,99.99
2016-12-12T04:08:22.847Z,99.99
2016-12-12T04:09:23.479Z,99.99
2016-12-12T04:10:24.108Z,99.99
2016-12-12T04:11:24.738Z,99.99
2016-12-12T04:12:25.363Z,99.99
2016-12-12T04:13:26.001Z,99.99
2016-12-12T04:14:26.664Z,99.99
2016-12-12T04:15:27.306Z,99.99
2016-12-12T04:16:27.926Z,99.99
2016-12-12T04:17:28.566Z,99.99
2016-12-12T04:18:29.218Z,99.99
2016-12-12T04:19:29.851Z,99.99
2016-12-12T04:20:30.490Z,99.99
2016-12-12T04:21:31.118Z,99.99
2016-12-12T04:22:31.748Z,99.99
2016-12-12T04:23:32.396Z,99.99
2016-12-12T04:24:33.018Z,99.99
2016-12-12T04:25:33.643Z,99.99
2016-12-12T04:26:34.266Z,99.99
2016-12-12T04:27:34.886Z,99.99
2016-12-12T04:28:35.526Z,99.99
2016-12-12T04:29:36.167Z,99.99
2016-12-12T04:30:36.802Z,99.99
2016-12-12T04:31:37.432Z,99.99
2016-12-12T04:32:38.084Z,99.99
2016-12-12T04:33:38.706Z,99.99
2016-12-12T04:34:39.323Z,99.99
2016-12-12T04:35:39.944Z,99.99
2016-12-12T04:36:40.572Z,99.99
2016-12-12T04:37:41.206Z,99.99
2016-12-12T04:38:41.842Z,99.99
2016-12-12T04:39:42.483Z,99.99
2016-12-12T04:40:43.115Z,99.99
2016-12-12T04:41:43.738Z,99.99
2016-12-12T04:42:44.359Z,99.99
2016-12-12T04:43:44.992Z,99.99
2016-12-12T04:44:45.628Z,99.99
2016-12-12T04:45:46.264Z,99.99
2016-12-12T04:46:46.893Z,99.99
2016-12-12T04:47:47.531Z,99.99
2016-12-12T04:48:48.163Z,99.99
2016-12-12T04:49:48.816Z,99.99
2016-12-12T04:50:49.428Z,99.99
2016-12-12T04:51:50.055Z,99.99
2016-12-12T04:52:50.701Z,99.99
2016-12-12T04:53:51.335Z,99.99
2016-12-12T04:54:51.953Z,99.99
2016-12-12T04:55:52.580Z,99.99
2016-12-12T04:56:53.209Z,99.99
2016-12-12T04:57:53.848Z,99.99
2016-12-12T04:58:54.477Z,99.99
2016-12-12T04:59:55.107Z,99.99
2016-12-12T05:00:55.727Z,99.99
2016-12-12T05:01:56.343Z,99.99
2016-12-12T05:02:56.965Z,99.99
2016-12-12T05:03:57.600Z,99.99
2016-12-12T05:04:58.215Z,99.99
2016-12-12T05:05:58.845Z,99.99
2016-12-12T05:06:59.475Z,99.99
2016-12-12T05:08:00.120Z,99.99
2016-12-12T05:09:00.752Z,99.99
2016-12-12T05:10:01.380Z,99.99
2016-12-12T05:11:02.007Z,99.99
2016-12-12T05:12:02.660Z,99.99
2016-12-12T05:13:03.317Z,99.99
2016-12-12T05:14:03.962Z,99.99
2016-12-12T05:15:04.605Z,99.99
2016-12-12T05:16:05.245Z,99.99
2016-12-12T05:17:05.878Z,99.99
2016-12-12T05:18:06.510Z,99.99
2016-12-12T05:19:07.157Z,99.99
2016-12-12T05:20:07.793Z,99.99
2016-12-12T05:21:08.448Z,99.99
2016-12-12T05:22:09.074Z,99.99
2016-12-12T05:23:09.692Z,99.99
2016-12-12T05:24:10.314Z,99.99
2016-12-12T05:25:10.940Z,99.99
2016-12-12T05:26:11.580Z,99.99
2016-12-12T05:27:12.213Z,99.99
2016-12-12T05:28:12.859Z,99.99
2016-12-12T05:29:13.502Z,99.99
2016-12-12T05:30:14.140Z,99.99
2016-12-12T05:31:14.766Z,99.99
2016-12-12T05:32:15.380Z,99.99
2016-12-12T05:33:16.000Z,99.99
2016-12-12T05:34:16.616Z,99.99
2016-12-12T05:35:17.245Z,99.99
2016-12-12T05:36:17.869Z,99.99
2016-12-12T05:37:18.493Z,99.99
2016-12-12T05:38:19.139Z,99.99
2016-12-12T05:39:19.794Z,99.99
2016-12-12T05:40:20.448Z,99.99
2016-12-12T05:41:21.077Z,99.99
2016-12-12T05:42:21.697Z,99.99
2016-12-12T05:43:22.324Z,99.99
2016-12-12T05:44:22.944Z,99.99
2016-12-12T05:45:23.581Z,99.99
2016-12-12T05:46:24.232Z,99.99
2016-12-12T05:47:24.864Z,99.99
2016-12-12T05:48:25.504Z,99.99
2016-12-12T05:49:26.141Z,99.99
2016-12-12T05:50:26.768Z,99.99
2016-12-12T05:51:27.394Z,99.99
2016-12-12T05:52:28.008Z,99.99
2016-12-12T05:53:28.676Z,99.99
2016-12-12T05:54:29.302Z,99.99
2016-12-12T05:55:29.942Z,99.99
2016-12-12T05:56:30.588Z,99.99
2016-12-12T05:57:31.214Z,99.99
2016-12-12T05:58:31.831Z,99.99
2016-12-12T05:59:32.457Z,99.99
2016-12-12T06:00:33.075Z,99.99
2016-12-12T06:01:33.711Z,99.99
2016-12-12T06:02:34.321Z,99.3
2016-12-12T06:03:34.937Z,99.99
2016-12-12T06:04:35.655Z,99.99
2016-12-12T06:05:36.291Z,99.99
2016-12-12T06:06:36.956Z,99.88
2016-12-12T06:07:37.611Z,99.99
2016-12-12T06:08:38.232Z,99.99
2016-12-12T06:09:38.855Z,99.99
2016-12-12T06:10:39.528Z,99.99
2016-12-12T06:11:40.165Z,99.99
2016-12-12T06:12:40.842Z,99.99
2016-12-12T06:13:41.463Z,99.99
2016-12-12T06:14:42.109Z,99.35
2016-12-12T06:15:42.795Z,99.07
2016-12-12T06:16:43.423Z,99.44
2016-12-12T06:17:44.050Z,99.64
2016-12-12T06:18:44.719Z,99.64
2016-12-12T06:19:45.372Z,99.07
2016-12-12T06:20:45.999Z,99.16
2016-12-12T06:21:46.687Z,99.07
2016-12-12T06:22:47.337Z,98.97
2016-12-12T06:23:47.982Z,99.16
2016-12-12T06:24:48.649Z,98.79
2016-12-12T06:25:49.306Z,98.79
2016-12-12T06:26:49.949Z,97.55
2016-12-12T06:27:50.610Z,97.36
2016-12-12T06:28:51.264Z,96.98
2016-12-12T06:29:51.899Z,97.17
2016-12-12T06:30:52.528Z,97.45
2016-12-12T06:31:53.158Z,97.83
2016-12-12T06:32:53.817Z,97.92
2016-12-12T06:33:54.446Z,97.83
2016-12-12T06:34:55.098Z,97.17
2016-12-12T06:35:55.718Z,97.31
2016-12-12T06:36:56.347Z,97.27
2016-12-12T06:37:56.980Z,96.88
2016-12-12T06:38:57.599Z,96.79
2016-12-12T06:39:58.227Z,97.17
2016-12-12T06:40:58.886Z,96.5
2016-12-12T06:41:59.525Z,96.12
2016-12-12T06:43:00.175Z,96.22
2016-12-12T06:44:00.791Z,96.6
2016-12-12T06:45:01.411Z,97.36
2016-12-12T06:46:02.104Z,97.12
2016-12-12T06:47:02.735Z,96.45
2016-12-12T06:48:03.383Z,97.17
2016-12-12T06:49:04.058Z,97.36
2016-12-12T06:50:04.711Z,97.55
2016-12-12T06:51:05.341Z,96.69
2016-12-12T06:52:05.979Z,96.79
2016-12-12T06:53:06.625Z,96.98
2016-12-12T06:54:07.266Z,97.27
2016-12-12T06:55:07.926Z,96.79
2016-12-12T06:56:08.567Z,97.36
2016-12-12T06:57:09.231Z,96.88
2016-12-12T06:58:09.895Z,97.07
2016-12-12T06:59:10.518Z,97.12
2016-12-12T07:00:11.160Z,97.27
2016-12-12T07:01:11.834Z,96.79
2016-12-12T07:02:12.485Z,97.12
2016-12-12T07:03:13.166Z,97.31
2016-12-12T07:04:13.809Z,96.74
2016-12-12T07:05:14.470Z,97.02
2016-12-12T07:06:15.107Z,97.22
2016-12-12T07:07:15.760Z,97.02
2016-12-12T07:08:16.398Z,97.78
2016-12-12T07:09:17.055Z,97.12
2016-12-12T07:10:17.727Z,97.31
2016-12-12T07:11:18.414Z,97.88
2016-12-12T07:12:19.326Z,97.12
2016-12-12T07:13:20.160Z,97.69
2016-12-12T07:14:20.928Z,97.69
2016-12-12T07:15:21.650Z,97.88
2016-12-12T07:16:22.337Z,98.45
2016-12-12T07:17:23.001Z,98.35
2016-12-12T07:18:23.691Z,99.02
2016-12-12T07:19:24.342Z,98.64
2016-12-12T07:20:25.031Z,98.35
2016-12-12T07:21:25.682Z,99.02
2016-12-12T07:22:26.375Z,99.02
2016-12-12T07:23:26.988Z,98.35
2016-12-12T07:24:27.660Z,98.54
2016-12-12T07:25:28.442Z,98.92
2016-12-12T07:26:29.107Z,99.02
2016-12-12T07:27:29.735Z,99.77
2016-12-12T07:28:30.400Z,98.73
2016-12-12T07:29:31.064Z,99.02
2016-12-12T07:30:31.698Z,98.92
2016-12-12T07:31:32.368Z,99.77
2016-12-12T07:32:33.034Z,99.21
2016-12-12T07:33:33.716Z,99.58
2016-12-12T07:34:34.374Z,99.99
2016-12-12T07:35:35.010Z,99.4
2016-12-12T07:36:35.666Z,99.77
2016-12-12T07:37:36.299Z,99.3
2016-12-12T07:38:36.963Z,98.92
2016-12-12T07:39:37.680Z,99.58
2016-12-12T07:40:38.379Z,99.58
2016-12-12T07:41:39.068Z,99.06
2016-12-12T07:42:39.748Z,99.54
2016-12-12T07:43:40.438Z,99.44
2016-12-12T07:44:41.120Z,98.68
2016-12-12T07:45:41.782Z,99.16
2016-12-12T07:46:42.461Z,98.87
2016-12-12T07:47:43.166Z,99.63
2016-12-12T07:48:43.853Z,98.87
2016-12-12T07:49:44.513Z,99.63
2016-12-12T07:50:45.190Z,99.44
2016-12-12T07:51:45.879Z,98.87
2016-12-12T07:52:46.536Z,98.97
2016-12-12T07:53:47.197Z,98.97
2016-12-12T07:54:47.823Z,98.87
2016-12-12T07:55:48.508Z,98.78
2016-12-12T07:56:49.174Z,98.21
2016-12-12T07:57:49.832Z,98.68
2016-12-12T07:58:50.502Z,98.97
2016-12-12T07:59:51.141Z,98.68
2016-12-12T08:00:51.813Z,98.59
2016-12-12T08:01:52.470Z,98.49
2016-12-12T08:02:53.103Z,98.4
2016-12-12T08:03:53.807Z,97.83
2016-12-12T08:04:54.480Z,98.78
2016-12-12T08:05:55.127Z,98.3
2016-12-12T08:06:55.783Z,98.49
2016-12-12T08:07:56.425Z,98.3
2016-12-12T08:08:57.080Z,98.49
2016-12-12T08:09:57.755Z,98.4
2016-12-12T08:10:58.395Z,97.92
2016-12-12T08:11:59.034Z,97.17
2016-12-12T08:12:59.675Z,98.11
2016-12-12T08:14:00.333Z,97.74
2016-12-12T08:15:00.952Z,97.26
2016-12-12T08:16:01.576Z,96.78
2016-12-12T08:17:02.252Z,97.26
2016-12-12T08:18:02.919Z,97.26
2016-12-12T08:19:03.558Z,97.74
2016-12-12T08:20:04.204Z,97.26
2016-12-12T08:21:04.843Z,97.74
2016-12-12T08:22:05.501Z,98.02
2016-12-12T08:23:06.121Z,97.92
2016-12-12T08:24:06.742Z,97.83
2016-12-12T08:25:07.430Z,97.92
2016-12-12T08:26:08.097Z,98.49
2016-12-12T08:27:08.790Z,98.49
2016-12-12T08:28:09.434Z,98.21
2016-12-12T08:29:10.051Z,98.63
2016-12-12T08:30:10.668Z,98.44
2016-12-12T08:31:11.369Z,97.83
2016-12-12T08:32:12.023Z,97.45
2016-12-12T08:33:12.717Z,97.74
2016-12-12T08:34:13.369Z,97.64
2016-12-12T08:35:14.042Z,98.02
2016-12-12T08:36:14.700Z,96.88
2016-12-12T08:37:15.347Z,98.02
2016-12-12T08:38:16.021Z,97.92
2016-12-12T08:39:16.672Z,97.59
2016-12-12T08:40:17.300Z,98.02
2016-12-12T08:41:17.945Z,98.59
2016-12-12T08:42:18.633Z,97.36
2016-12-12T08:43:19.309Z,97.45
2016-12-12T08:44:20.004Z,97.17
2016-12-12T08:45:20.709Z,97.17
2016-12-12T08:46:21.410Z,97.07
2016-12-12T08:47:22.052Z,96.59
2016-12-12T08:48:22.675Z,96.97
2016-12-12T08:49:23.364Z,96.88
2016-12-12T08:50:24.019Z,96.59
2016-12-12T08:51:24.640Z,96.41
2016-12-12T08:52:25.315Z,96.69
2016-12-12T08:53:25.990Z,96.22
2016-12-12T08:54:26.706Z,95.74
2016-12-12T08:55:27.432Z,95.36
2016-12-12T08:56:28.105Z,95.84
2016-12-12T08:57:28.748Z,95.36
2016-12-12T08:58:29.388Z,95.74
2016-12-12T08:59:30.035Z,96.12
2016-12-12T09:00:30.749Z,96.03
2016-12-12T09:01:31.419Z,95.46
2016-12-12T09:02:32.056Z,95.36
2016-12-12T09:03:32.698Z,96.03
2016-12-12T09:04:33.375Z,96.03
2016-12-12T09:05:34.015Z,96.03
2016-12-12T09:06:34.657Z,96.03
2016-12-12T09:07:35.293Z,96.69
2016-12-12T09:08:35.987Z,96.88
2016-12-12T09:09:36.621Z,96.31
2016-12-12T09:10:37.308Z,96.88
2016-12-12T09:11:38.098Z,96.64
2016-12-12T09:12:38.791Z,96.59
2016-12-12T09:13:39.477Z,97.07
2016-12-12T09:14:40.137Z,96.69
2016-12-12T09:15:40.807Z,96.88
2016-12-12T09:16:41.454Z,97.45
2016-12-12T09:17:42.123Z,97.36
2016-12-12T09:18:42.850Z,97.26
2016-12-12T09:19:43.470Z,97.64
2016-12-12T09:20:44.153Z,98.21
2016-12-12T09:21:44.837Z,97.36
2016-12-12T09:22:45.548Z,97.02
2016-12-12T09:23:46.237Z,97.45
2016-12-12T09:24:46.940Z,97.36
2016-12-12T09:25:47.590Z,97.12
2016-12-12T09:26:48.353Z,96.88
2016-12-12T09:27:49.023Z,96.64
2016-12-12T09:28:49.686Z,97.31
2016-12-12T09:29:50.363Z,98.25
2016-12-12T09:30:51.000Z,98.11
2016-12-12T09:31:51.638Z,96.5
2016-12-12T09:32:52.345Z,95.12
2016-12-12T09:33:53.017Z,95.41
2016-12-12T09:34:53.714Z,95.41
2016-12-12T09:35:54.422Z,95.31
2016-12-12T09:36:55.097Z,95.5
2016-12-12T09:37:55.806Z,96.17
2016-12-12T09:38:56.543Z,95.22
2016-12-12T09:39:57.229Z,94.7
2016-12-12T09:40:57.856Z,94.79
2016-12-12T09:41:58.621Z,95.12
2016-12-12T09:42:59.283Z,94.84
2016-12-12T09:43:59.952Z,95.46
2016-12-12T09:45:00.586Z,94.42
2016-12-12T09:46:01.279Z,94.6
2016-12-12T09:47:01.997Z,94.79
2016-12-12T09:48:02.666Z,95.07
2016-12-12T09:49:03.313Z,95.07
2016-12-12T09:50:03.995Z,94.13
2016-12-12T09:51:04.653Z,94.03
2016-12-12T09:52:05.354Z,94.23
2016-12-12T09:53:06.082Z,93.75
2016-12-12T09:54:06.770Z,92.71
2016-12-12T09:55:07.423Z,92.33
2016-12-12T09:56:08.110Z,92.14
2016-12-12T09:57:08.780Z,92.52
2016-12-12T09:58:09.480Z,92.71
2016-12-12T09:59:10.131Z,92.61
2016-12-12T10:00:10.803Z,92.9
2016-12-12T10:01:11.463Z,93.46
2016-12-12T10:02:12.133Z,93.37
2016-12-12T10:03:12.790Z,93.46
2016-12-12T10:04:13.425Z,92.9
2016-12-12T10:05:14.050Z,92.04
2016-12-12T10:06:14.726Z,92.33
2016-12-12T10:07:15.383Z,90.62
2016-12-12T10:08:16.049Z,90.52
2016-12-12T10:09:16.735Z,90.71
2016-12-12T10:10:17.407Z,91.09
2016-12-12T10:11:18.082Z,91.19
2016-12-12T10:12:18.849Z,91.19
2016-12-12T10:13:19.517Z,91.19
2016-12-12T10:14:20.186Z,90.62
2016-12-12T10:15:20.859Z,90.43
2016-12-12T10:16:21.594Z,90.62
2016-12-12T10:17:22.237Z,90.14
2016-12-12T10:18:22.926Z,89.95
2016-12-12T10:19:23.601Z,90.14
2016-12-12T10:20:24.292Z,90.24
2016-12-12T10:21:24.958Z,90.24
2016-12-12T10:22:25.616Z,90.52
2016-12-12T10:23:26.427Z,91
2016-12-12T10:24:27.067Z,90.81
2016-12-12T10:25:27.707Z,91.09
2016-12-12T10:26:28.391Z,90.9
2016-12-12T10:27:29.114Z,91.33
2016-12-12T10:28:29.736Z,90.71
2016-12-12T10:29:30.435Z,89.48
2016-12-12T10:30:31.107Z,90.33
2016-12-12T10:31:31.783Z,89.58
2016-12-12T10:32:32.437Z,88.72
2016-12-12T10:33:33.130Z,89.05
2016-12-12T10:34:33.866Z,88.67
2016-12-12T10:35:34.502Z,87.91
2016-12-12T10:36:35.175Z,88.91
2016-12-12T10:37:35.854Z,88.76
2016-12-12T10:38:36.576Z,88.57
2016-12-12T10:39:37.234Z,89.14
2016-12-12T10:40:37.953Z,89.2
2016-12-12T10:41:38.633Z,88.81
2016-12-12T10:42:39.369Z,88.62
2016-12-12T10:43:40.028Z,89.67
2016-12-12T10:44:40.694Z,89.67
2016-12-12T10:45:41.329Z,89.86
